sensor_id;sensor_type;location;lat;lon;timestamp;temperature;humidity
63648;DHT22;49792;48.744;9.176;2023-04-24T00:01:40;19.90;77.40
63648;DHT22;49792;48.744;9.176;2023-04-24T00:04:07;19.90;77.30
63648;DHT22;49792;48.744;9.176;2023-04-24T00:06:36;19.90;77.30
63648;DHT22;49792;48.744;9.176;2023-04-24T00:09:02;19.90;77.40
63648;DHT22;49792;48.744;9.176;2023-04-24T00:11:28;19.80;77.00
63648;DHT22;49792;48.744;9.176;2023-04-24T00:13:54;19.80;76.90
63648;DHT22;49792;48.744;9.176;2023-04-24T00:16:20;19.80;76.90
63648;DHT22;49792;48.744;9.176;2023-04-24T00:18:48;19.80;76.90
63648;DHT22;49792;48.744;9.176;2023-04-24T00:21:14;19.80;76.70
63648;DHT22;49792;48.744;9.176;2023-04-24T00:23:41;19.80;76.70
63648;DHT22;49792;48.744;9.176;2023-04-24T00:26:06;19.90;76.70
63648;DHT22;49792;48.744;9.176;2023-04-24T00:28:32;19.80;76.50
63648;DHT22;49792;48.744;9.176;2023-04-24T00:30:57;19.80;76.60
63648;DHT22;49792;48.744;9.176;2023-04-24T00:33:23;19.80;76.40
63648;DHT22;49792;48.744;9.176;2023-04-24T00:35:48;19.70;76.50
63648;DHT22;49792;48.744;9.176;2023-04-24T00:38:14;19.80;76.60
63648;DHT22;49792;48.744;9.176;2023-04-24T00:40:39;19.80;76.30
63648;DHT22;49792;48.744;9.176;2023-04-24T00:43:05;19.80;76.40
63648;DHT22;49792;48.744;9.176;2023-04-24T00:45:30;19.80;76.20
63648;DHT22;49792;48.744;9.176;2023-04-24T00:47:56;19.80;76.20
63648;DHT22;49792;48.744;9.176;2023-04-24T00:50:23;19.70;76.10
63648;DHT22;49792;48.744;9.176;2023-04-24T00:52:49;19.80;76.00
63648;DHT22;49792;48.744;9.176;2023-04-24T00:55:14;19.80;76.10
63648;DHT22;49792;48.744;9.176;2023-04-24T00:57:40;19.80;76.00
63648;DHT22;49792;48.744;9.176;2023-04-24T01:00:06;19.70;75.80
63648;DHT22;49792;48.744;9.176;2023-04-24T01:02:40;19.70;75.70
63648;DHT22;49792;48.744;9.176;2023-04-24T01:05:09;19.80;75.90
63648;DHT22;49792;48.744;9.176;2023-04-24T01:07:35;19.70;75.80
63648;DHT22;49792;48.744;9.176;2023-04-24T01:10:01;19.70;75.80
63648;DHT22;49792;48.744;9.176;2023-04-24T01:12:26;19.70;75.70
63648;DHT22;49792;48.744;9.176;2023-04-24T01:14:52;19.70;75.60
63648;DHT22;49792;48.744;9.176;2023-04-24T01:17:18;19.60;75.60
63648;DHT22;49792;48.744;9.176;2023-04-24T01:19:43;19.60;75.70
63648;DHT22;49792;48.744;9.176;2023-04-24T01:22:10;19.70;75.90
63648;DHT22;49792;48.744;9.176;2023-04-24T01:24:36;19.70;75.70
63648;DHT22;49792;48.744;9.176;2023-04-24T01:27:09;19.70;75.70
63648;DHT22;49792;48.744;9.176;2023-04-24T01:29:35;19.50;75.60
63648;DHT22;49792;48.744;9.176;2023-04-24T01:32:01;19.60;75.50
63648;DHT22;49792;48.744;9.176;2023-04-24T01:34:27;19.60;75.50
63648;DHT22;49792;48.744;9.176;2023-04-24T01:36:53;19.60;75.70
63648;DHT22;49792;48.744;9.176;2023-04-24T01:39:18;19.60;75.40
63648;DHT22;49792;48.744;9.176;2023-04-24T01:41:45;19.60;75.30
63648;DHT22;49792;48.744;9.176;2023-04-24T01:44:11;19.60;75.40
63648;DHT22;49792;48.744;9.176;2023-04-24T01:46:37;19.50;75.20
63648;DHT22;49792;48.744;9.176;2023-04-24T01:49:03;19.60;75.10
63648;DHT22;49792;48.744;9.176;2023-04-24T01:51:29;19.50;75.00
63648;DHT22;49792;48.744;9.176;2023-04-24T01:53:55;19.50;75.10
63648;DHT22;49792;48.744;9.176;2023-04-24T01:56:21;19.50;75.00
63648;DHT22;49792;48.744;9.176;2023-04-24T01:58:47;19.50;75.00
63648;DHT22;49792;48.744;9.176;2023-04-24T02:01:19;19.40;75.00
63648;DHT22;49792;48.744;9.176;2023-04-24T02:03:45;19.50;75.00
63648;DHT22;49792;48.744;9.176;2023-04-24T02:06:13;19.50;75.00
63648;DHT22;49792;48.744;9.176;2023-04-24T02:08:39;19.50;74.80
63648;DHT22;49792;48.744;9.176;2023-04-24T02:11:04;19.50;75.10
63648;DHT22;49792;48.744;9.176;2023-04-24T02:13:31;19.50;74.80
63648;DHT22;49792;48.744;9.176;2023-04-24T02:15:58;19.50;74.80
63648;DHT22;49792;48.744;9.176;2023-04-24T02:18:23;19.40;74.80
63648;DHT22;49792;48.744;9.176;2023-04-24T02:20:54;19.50;74.80
63648;DHT22;49792;48.744;9.176;2023-04-24T02:23:20;19.50;74.70
63648;DHT22;49792;48.744;9.176;2023-04-24T02:25:45;19.50;74.70
63648;DHT22;49792;48.744;9.176;2023-04-24T02:28:11;19.50;74.50
63648;DHT22;49792;48.744;9.176;2023-04-24T02:30:36;19.50;74.50
63648;DHT22;49792;48.744;9.176;2023-04-24T02:33:02;19.50;74.50
63648;DHT22;49792;48.744;9.176;2023-04-24T02:35:28;19.50;74.50
63648;DHT22;49792;48.744;9.176;2023-04-24T02:37:54;19.50;74.50
63648;DHT22;49792;48.744;9.176;2023-04-24T02:40:19;19.50;75.50
63648;DHT22;49792;48.744;9.176;2023-04-24T02:42:45;19.50;74.60
63648;DHT22;49792;48.744;9.176;2023-04-24T02:45:10;19.50;74.60
63648;DHT22;49792;48.744;9.176;2023-04-24T02:47:36;19.40;74.50
63648;DHT22;49792;48.744;9.176;2023-04-24T02:50:02;19.50;74.40
63648;DHT22;49792;48.744;9.176;2023-04-24T02:52:28;19.50;74.40
63648;DHT22;49792;48.744;9.176;2023-04-24T02:54:53;19.50;74.50
63648;DHT22;49792;48.744;9.176;2023-04-24T02:57:19;19.50;74.50
63648;DHT22;49792;48.744;9.176;2023-04-24T02:59:45;19.40;74.20
63648;DHT22;49792;48.744;9.176;2023-04-24T03:02:10;19.40;74.30
63648;DHT22;49792;48.744;9.176;2023-04-24T03:04:38;19.40;74.10
63648;DHT22;49792;48.744;9.176;2023-04-24T03:07:05;19.40;74.20
63648;DHT22;49792;48.744;9.176;2023-04-24T03:09:31;19.40;74.10
63648;DHT22;49792;48.744;9.176;2023-04-24T03:11:56;19.40;74.20
63648;DHT22;49792;48.744;9.176;2023-04-24T03:14:22;19.40;74.10
63648;DHT22;49792;48.744;9.176;2023-04-24T03:16:47;19.40;74.20
63648;DHT22;49792;48.744;9.176;2023-04-24T03:19:13;19.30;74.30
63648;DHT22;49792;48.744;9.176;2023-04-24T03:21:39;19.40;74.30
63648;DHT22;49792;48.744;9.176;2023-04-24T03:24:07;19.30;74.30
63648;DHT22;49792;48.744;9.176;2023-04-24T03:26:32;19.40;74.10
63648;DHT22;49792;48.744;9.176;2023-04-24T03:28:58;19.30;74.00
63648;DHT22;49792;48.744;9.176;2023-04-24T03:31:23;19.40;74.00
63648;DHT22;49792;48.744;9.176;2023-04-24T03:33:49;19.40;74.00
63648;DHT22;49792;48.744;9.176;2023-04-24T03:36:14;19.40;74.10
63648;DHT22;49792;48.744;9.176;2023-04-24T03:38:40;19.20;73.80
63648;DHT22;49792;48.744;9.176;2023-04-24T03:41:05;19.30;73.80
63648;DHT22;49792;48.744;9.176;2023-04-24T03:43:31;19.30;73.70
63648;DHT22;49792;48.744;9.176;2023-04-24T03:45:58;19.30;73.70
63648;DHT22;49792;48.744;9.176;2023-04-24T03:48:24;19.20;73.70
63648;DHT22;49792;48.744;9.176;2023-04-24T03:50:49;19.30;73.70
63648;DHT22;49792;48.744;9.176;2023-04-24T03:53:15;19.20;73.60
63648;DHT22;49792;48.744;9.176;2023-04-24T03:55:40;19.20;73.50
63648;DHT22;49792;48.744;9.176;2023-04-24T03:58:06;19.20;73.70
63648;DHT22;49792;48.744;9.176;2023-04-24T04:00:31;19.30;73.70
63648;DHT22;49792;48.744;9.176;2023-04-24T04:02:57;19.20;73.70
63648;DHT22;49792;48.744;9.176;2023-04-24T04:05:22;19.20;73.60
63648;DHT22;49792;48.744;9.176;2023-04-24T04:07:48;19.30;73.60
63648;DHT22;49792;48.744;9.176;2023-04-24T04:10:13;19.30;73.40
63648;DHT22;49792;48.744;9.176;2023-04-24T04:12:42;19.20;73.60
63648;DHT22;49792;48.744;9.176;2023-04-24T04:15:08;19.20;73.40
63648;DHT22;49792;48.744;9.176;2023-04-24T04:17:33;19.30;73.50
63648;DHT22;49792;48.744;9.176;2023-04-24T04:19:59;19.20;73.70
63648;DHT22;49792;48.744;9.176;2023-04-24T04:22:25;19.20;73.60
63648;DHT22;49792;48.744;9.176;2023-04-24T04:24:50;19.40;73.70
63648;DHT22;49792;48.744;9.176;2023-04-24T04:27:16;19.40;73.70
63648;DHT22;49792;48.744;9.176;2023-04-24T04:29:44;19.30;73.70
63648;DHT22;49792;48.744;9.176;2023-04-24T04:32:09;19.20;73.30
63648;DHT22;49792;48.744;9.176;2023-04-24T04:34:35;19.30;73.50
63648;DHT22;49792;48.744;9.176;2023-04-24T04:37:03;19.20;73.50
63648;DHT22;49792;48.744;9.176;2023-04-24T04:39:28;19.20;73.00
63648;DHT22;49792;48.744;9.176;2023-04-24T04:41:55;19.20;71.70
63648;DHT22;49792;48.744;9.176;2023-04-24T04:44:20;19.20;71.30
63648;DHT22;49792;48.744;9.176;2023-04-24T04:46:49;19.20;70.70
63648;DHT22;49792;48.744;9.176;2023-04-24T04:49:15;19.10;71.60
63648;DHT22;49792;48.744;9.176;2023-04-24T04:51:42;19.00;72.40
63648;DHT22;49792;48.744;9.176;2023-04-24T04:54:07;19.00;72.80
63648;DHT22;49792;48.744;9.176;2023-04-24T04:56:33;19.10;72.90
63648;DHT22;49792;48.744;9.176;2023-04-24T04:59:04;19.00;72.60
63648;DHT22;49792;48.744;9.176;2023-04-24T05:01:31;19.00;72.60
63648;DHT22;49792;48.744;9.176;2023-04-24T05:03:56;19.00;72.20
63648;DHT22;49792;48.744;9.176;2023-04-24T05:06:22;19.00;71.90
63648;DHT22;49792;48.744;9.176;2023-04-24T05:08:47;19.00;71.90
63648;DHT22;49792;48.744;9.176;2023-04-24T05:11:14;19.10;71.90
63648;DHT22;49792;48.744;9.176;2023-04-24T05:13:40;19.10;71.20
63648;DHT22;49792;48.744;9.176;2023-04-24T05:16:05;19.10;72.00
63648;DHT22;49792;48.744;9.176;2023-04-24T05:18:31;19.10;70.40
63648;DHT22;49792;48.744;9.176;2023-04-24T05:20:56;19.10;70.70
63648;DHT22;49792;48.744;9.176;2023-04-24T05:23:22;19.10;70.70
63648;DHT22;49792;48.744;9.176;2023-04-24T05:25:47;19.10;71.10
63648;DHT22;49792;48.744;9.176;2023-04-24T05:28:13;19.10;70.90
63648;DHT22;49792;48.744;9.176;2023-04-24T05:30:38;19.00;71.20
63648;DHT22;49792;48.744;9.176;2023-04-24T05:33:04;19.00;70.60
63648;DHT22;49792;48.744;9.176;2023-04-24T05:35:29;18.90;69.10
63648;DHT22;49792;48.744;9.176;2023-04-24T05:37:55;19.00;69.20
63648;DHT22;49792;48.744;9.176;2023-04-24T05:40:20;19.00;69.30
63648;DHT22;49792;48.744;9.176;2023-04-24T05:42:49;19.00;69.00
63648;DHT22;49792;48.744;9.176;2023-04-24T05:45:14;19.00;69.10
63648;DHT22;49792;48.744;9.176;2023-04-24T05:47:42;19.00;69.30
63648;DHT22;49792;48.744;9.176;2023-04-24T05:50:09;19.00;68.80
63648;DHT22;49792;48.744;9.176;2023-04-24T05:52:35;19.00;68.90
63648;DHT22;49792;48.744;9.176;2023-04-24T05:55:00;19.00;68.40
63648;DHT22;49792;48.744;9.176;2023-04-24T05:57:26;19.00;68.50
63648;DHT22;49792;48.744;9.176;2023-04-24T05:59:51;19.00;68.50
63648;DHT22;49792;48.744;9.176;2023-04-24T06:02:17;19.00;68.50
63648;DHT22;49792;48.744;9.176;2023-04-24T06:04:42;19.00;68.20
63648;DHT22;49792;48.744;9.176;2023-04-24T06:07:10;19.10;67.90
63648;DHT22;49792;48.744;9.176;2023-04-24T06:09:36;19.00;67.80
63648;DHT22;49792;48.744;9.176;2023-04-24T06:12:02;19.00;67.80
63648;DHT22;49792;48.744;9.176;2023-04-24T06:14:27;19.00;67.70
63648;DHT22;49792;48.744;9.176;2023-04-24T06:16:53;19.00;67.80
63648;DHT22;49792;48.744;9.176;2023-04-24T06:19:18;19.00;68.50
63648;DHT22;49792;48.744;9.176;2023-04-24T06:21:44;18.70;64.10
63648;DHT22;49792;48.744;9.176;2023-04-24T06:24:09;18.10;61.20
63648;DHT22;49792;48.744;9.176;2023-04-24T06:26:35;18.20;64.70
63648;DHT22;49792;48.744;9.176;2023-04-24T06:29:01;18.40;65.00
63648;DHT22;49792;48.744;9.176;2023-04-24T06:31:49;18.60;65.80
63648;DHT22;49792;48.744;9.176;2023-04-24T06:34:15;18.70;66.60
63648;DHT22;49792;48.744;9.176;2023-04-24T06:36:40;18.80;66.50
63648;DHT22;49792;48.744;9.176;2023-04-24T06:39:09;18.70;66.30
63648;DHT22;49792;48.744;9.176;2023-04-24T06:41:34;18.80;66.60
63648;DHT22;49792;48.744;9.176;2023-04-24T06:44:00;18.80;66.60
63648;DHT22;49792;48.744;9.176;2023-04-24T06:46:25;18.90;67.00
63648;DHT22;49792;48.744;9.176;2023-04-24T06:48:53;18.90;67.00
63648;DHT22;49792;48.744;9.176;2023-04-24T06:51:22;18.70;67.00
63648;DHT22;49792;48.744;9.176;2023-04-24T06:53:48;18.80;67.20
63648;DHT22;49792;48.744;9.176;2023-04-24T06:56:13;18.80;67.40
63648;DHT22;49792;48.744;9.176;2023-04-24T06:58:39;18.80;67.40
63648;DHT22;49792;48.744;9.176;2023-04-24T07:01:04;18.90;67.70
63648;DHT22;49792;48.744;9.176;2023-04-24T07:03:30;18.90;67.60
63648;DHT22;49792;48.744;9.176;2023-04-24T07:05:55;18.80;67.70
63648;DHT22;49792;48.744;9.176;2023-04-24T07:08:21;18.80;67.50
63648;DHT22;49792;48.744;9.176;2023-04-24T07:10:48;18.80;67.80
63648;DHT22;49792;48.744;9.176;2023-04-24T07:13:14;18.80;68.00
63648;DHT22;49792;48.744;9.176;2023-04-24T07:15:39;18.80;68.00
63648;DHT22;49792;48.744;9.176;2023-04-24T07:18:06;18.80;68.30
63648;DHT22;49792;48.744;9.176;2023-04-24T07:20:31;18.80;68.30
63648;DHT22;49792;48.744;9.176;2023-04-24T07:22:58;18.80;68.30
63648;DHT22;49792;48.744;9.176;2023-04-24T07:25:23;18.80;68.40
63648;DHT22;49792;48.744;9.176;2023-04-24T07:27:49;18.80;67.90
63648;DHT22;49792;48.744;9.176;2023-04-24T07:30:14;18.80;67.90
63648;DHT22;49792;48.744;9.176;2023-04-24T07:32:40;18.80;68.40
63648;DHT22;49792;48.744;9.176;2023-04-24T07:35:05;18.90;69.10
63648;DHT22;49792;48.744;9.176;2023-04-24T07:37:31;19.10;68.70
63648;DHT22;49792;48.744;9.176;2023-04-24T07:39:57;19.30;67.50
63648;DHT22;49792;48.744;9.176;2023-04-24T07:42:22;19.30;68.00
63648;DHT22;49792;48.744;9.176;2023-04-24T07:44:48;19.30;68.80
63648;DHT22;49792;48.744;9.176;2023-04-24T07:47:13;19.40;69.80
63648;DHT22;49792;48.744;9.176;2023-04-24T07:49:41;19.40;70.90
63648;DHT22;49792;48.744;9.176;2023-04-24T07:52:06;19.30;70.30
63648;DHT22;49792;48.744;9.176;2023-04-24T07:54:32;19.30;70.40
63648;DHT22;49792;48.744;9.176;2023-04-24T07:56:57;19.30;70.50
63648;DHT22;49792;48.744;9.176;2023-04-24T07:59:23;19.20;70.70
63648;DHT22;49792;48.744;9.176;2023-04-24T08:01:48;19.20;71.10
63648;DHT22;49792;48.744;9.176;2023-04-24T08:04:14;19.10;71.20
63648;DHT22;49792;48.744;9.176;2023-04-24T08:06:39;19.10;72.00
63648;DHT22;49792;48.744;9.176;2023-04-24T08:09:05;19.10;70.80
63648;DHT22;49792;48.744;9.176;2023-04-24T08:11:31;19.10;71.00
63648;DHT22;49792;48.744;9.176;2023-04-24T08:13:57;19.10;70.80
63648;DHT22;49792;48.744;9.176;2023-04-24T08:16:22;19.10;70.70
63648;DHT22;49792;48.744;9.176;2023-04-24T08:18:51;19.10;70.20
63648;DHT22;49792;48.744;9.176;2023-04-24T08:21:17;19.10;70.40
63648;DHT22;49792;48.744;9.176;2023-04-24T08:23:44;19.10;70.40
63648;DHT22;49792;48.744;9.176;2023-04-24T08:26:10;19.10;70.00
63648;DHT22;49792;48.744;9.176;2023-04-24T08:28:36;19.10;70.20
63648;DHT22;49792;48.744;9.176;2023-04-24T08:31:02;19.10;70.00
63648;DHT22;49792;48.744;9.176;2023-04-24T08:33:27;19.10;70.00
63648;DHT22;49792;48.744;9.176;2023-04-24T08:36:00;19.10;70.40
63648;DHT22;49792;48.744;9.176;2023-04-24T08:38:26;19.10;70.00
63648;DHT22;49792;48.744;9.176;2023-04-24T08:40:51;19.10;70.20
63648;DHT22;49792;48.744;9.176;2023-04-24T08:43:17;19.10;70.00
63648;DHT22;49792;48.744;9.176;2023-04-24T08:45:43;19.00;69.70
63648;DHT22;49792;48.744;9.176;2023-04-24T08:48:09;19.00;69.80
63648;DHT22;49792;48.744;9.176;2023-04-24T08:50:34;19.00;69.40
63648;DHT22;49792;48.744;9.176;2023-04-24T08:53:00;19.00;69.40
63648;DHT22;49792;48.744;9.176;2023-04-24T08:55:26;19.00;69.80
63648;DHT22;49792;48.744;9.176;2023-04-24T08:57:52;19.10;70.30
63648;DHT22;49792;48.744;9.176;2023-04-24T09:00:22;19.30;70.40
63648;DHT22;49792;48.744;9.176;2023-04-24T09:02:55;19.40;70.80
63648;DHT22;49792;48.744;9.176;2023-04-24T09:05:21;19.40;71.20
63648;DHT22;49792;48.744;9.176;2023-04-24T09:07:54;19.40;72.50
63648;DHT22;49792;48.744;9.176;2023-04-24T09:10:23;19.50;72.10
63648;DHT22;49792;48.744;9.176;2023-04-24T09:12:50;19.40;71.00
63648;DHT22;49792;48.744;9.176;2023-04-24T09:15:16;19.40;70.80
63648;DHT22;49792;48.744;9.176;2023-04-24T09:17:41;19.40;72.00
63648;DHT22;49792;48.744;9.176;2023-04-24T09:20:07;19.50;71.50
63648;DHT22;49792;48.744;9.176;2023-04-24T09:22:33;19.50;69.60
63648;DHT22;49792;48.744;9.176;2023-04-24T09:25:06;19.50;70.10
63648;DHT22;49792;48.744;9.176;2023-04-24T09:27:35;19.50;71.30
63648;DHT22;49792;48.744;9.176;2023-04-24T09:30:02;19.50;70.10
63648;DHT22;49792;48.744;9.176;2023-04-24T09:32:28;19.50;69.50
63648;DHT22;49792;48.744;9.176;2023-04-24T09:35:05;19.50;71.00
63648;DHT22;49792;48.744;9.176;2023-04-24T09:37:34;19.60;71.60
63648;DHT22;49792;48.744;9.176;2023-04-24T09:42:36;19.70;73.10
63648;DHT22;49792;48.744;9.176;2023-04-24T09:45:01;19.90;75.00
63648;DHT22;49792;48.744;9.176;2023-04-24T09:47:27;20.20;76.00
63648;DHT22;49792;48.744;9.176;2023-04-24T09:49:57;20.30;78.10
63648;DHT22;49792;48.744;9.176;2023-04-24T09:52:23;20.30;77.20
63648;DHT22;49792;48.744;9.176;2023-04-24T09:54:53;20.50;79.10
63648;DHT22;49792;48.744;9.176;2023-04-24T09:57:19;20.50;82.40
63648;DHT22;49792;48.744;9.176;2023-04-24T09:59:45;20.40;85.60
63648;DHT22;49792;48.744;9.176;2023-04-24T10:02:20;20.40;89.40
63648;DHT22;49792;48.744;9.176;2023-04-24T10:04:56;20.40;87.40
63648;DHT22;49792;48.744;9.176;2023-04-24T10:07:21;20.50;88.00
63648;DHT22;49792;48.744;9.176;2023-04-24T10:09:47;20.50;85.50
63648;DHT22;49792;48.744;9.176;2023-04-24T10:12:13;20.50;85.00
63648;DHT22;49792;48.744;9.176;2023-04-24T10:14:40;20.50;83.70
63648;DHT22;49792;48.744;9.176;2023-04-24T10:17:07;20.50;87.10
63648;DHT22;49792;48.744;9.176;2023-04-24T10:19:33;20.40;84.80
63648;DHT22;49792;48.744;9.176;2023-04-24T10:22:00;20.50;79.80
63648;DHT22;49792;48.744;9.176;2023-04-24T10:24:26;20.50;79.60
63648;DHT22;49792;48.744;9.176;2023-04-24T10:26:53;20.60;79.00
63648;DHT22;49792;48.744;9.176;2023-04-24T10:29:19;20.50;79.30
63648;DHT22;49792;48.744;9.176;2023-04-24T10:31:46;20.60;81.20
63648;DHT22;49792;48.744;9.176;2023-04-24T10:34:12;20.50;79.20
63648;DHT22;49792;48.744;9.176;2023-04-24T10:36:40;20.30;78.80
63648;DHT22;49792;48.744;9.176;2023-04-24T10:39:07;20.60;79.50
63648;DHT22;49792;48.744;9.176;2023-04-24T10:41:33;20.80;79.50
63648;DHT22;49792;48.744;9.176;2023-04-24T10:46:31;20.80;80.60
63648;DHT22;49792;48.744;9.176;2023-04-24T10:48:56;20.70;80.80
63648;DHT22;49792;48.744;9.176;2023-04-24T10:51:23;20.70;80.90
63648;DHT22;49792;48.744;9.176;2023-04-24T10:53:50;20.60;81.00
63648;DHT22;49792;48.744;9.176;2023-04-24T10:56:19;20.60;80.90
63648;DHT22;49792;48.744;9.176;2023-04-24T10:58:50;20.60;80.70
63648;DHT22;49792;48.744;9.176;2023-04-24T11:01:24;20.50;81.00
63648;DHT22;49792;48.744;9.176;2023-04-24T11:03:54;20.50;81.00
63648;DHT22;49792;48.744;9.176;2023-04-24T11:06:27;20.40;80.50
63648;DHT22;49792;48.744;9.176;2023-04-24T11:08:58;20.30;78.20
63648;DHT22;49792;48.744;9.176;2023-04-24T11:11:24;20.20;71.80
63648;DHT22;49792;48.744;9.176;2023-04-24T11:16:29;20.00;72.00
63648;DHT22;49792;48.744;9.176;2023-04-24T11:19:06;20.00;73.00
63648;DHT22;49792;48.744;9.176;2023-04-24T11:21:53;19.90;73.10
63648;DHT22;49792;48.744;9.176;2023-04-24T11:26:51;19.90;73.70
63648;DHT22;49792;48.744;9.176;2023-04-24T11:29:16;19.90;73.60
63648;DHT22;49792;48.744;9.176;2023-04-24T11:31:44;19.90;73.30
63648;DHT22;49792;48.744;9.176;2023-04-24T11:34:19;19.80;73.70
63648;DHT22;49792;48.744;9.176;2023-04-24T11:36:45;19.80;73.50
63648;DHT22;49792;48.744;9.176;2023-04-24T11:39:11;19.90;74.90
63648;DHT22;49792;48.744;9.176;2023-04-24T11:41:37;20.00;74.40
63648;DHT22;49792;48.744;9.176;2023-04-24T11:44:03;20.00;74.00
63648;DHT22;49792;48.744;9.176;2023-04-24T11:46:30;20.00;74.00
63648;DHT22;49792;48.744;9.176;2023-04-24T11:48:58;20.00;73.70
63648;DHT22;49792;48.744;9.176;2023-04-24T11:51:31;20.10;73.60
63648;DHT22;49792;48.744;9.176;2023-04-24T11:53:57;20.10;73.60
63648;DHT22;49792;48.744;9.176;2023-04-24T11:56:23;20.00;73.30
63648;DHT22;49792;48.744;9.176;2023-04-24T11:58:51;20.10;73.10
63648;DHT22;49792;48.744;9.176;2023-04-24T12:01:17;20.00;73.40
63648;DHT22;49792;48.744;9.176;2023-04-24T12:03:47;20.00;73.90
63648;DHT22;49792;48.744;9.176;2023-04-24T12:06:12;20.00;73.60
63648;DHT22;49792;48.744;9.176;2023-04-24T12:08:39;20.00;73.60
63648;DHT22;49792;48.744;9.176;2023-04-24T12:11:05;20.00;73.50
63648;DHT22;49792;48.744;9.176;2023-04-24T12:13:32;20.00;73.40
63648;DHT22;49792;48.744;9.176;2023-04-24T12:15:58;20.00;73.50
63648;DHT22;49792;48.744;9.176;2023-04-24T12:18:24;20.00;73.50
63648;DHT22;49792;48.744;9.176;2023-04-24T12:20:49;19.90;73.40
63648;DHT22;49792;48.744;9.176;2023-04-24T12:23:15;19.90;73.50
63648;DHT22;49792;48.744;9.176;2023-04-24T12:25:41;20.00;73.70
63648;DHT22;49792;48.744;9.176;2023-04-24T12:30:39;19.90;73.60
63648;DHT22;49792;48.744;9.176;2023-04-24T12:33:05;19.90;73.60
63648;DHT22;49792;48.744;9.176;2023-04-24T12:35:31;19.90;73.80
63648;DHT22;49792;48.744;9.176;2023-04-24T12:38:05;19.80;73.70
63648;DHT22;49792;48.744;9.176;2023-04-24T12:40:30;19.80;73.60
63648;DHT22;49792;48.744;9.176;2023-04-24T12:42:57;19.80;73.50
63648;DHT22;49792;48.744;9.176;2023-04-24T12:45:22;19.80;74.30
63648;DHT22;49792;48.744;9.176;2023-04-24T12:47:51;19.80;73.50
63648;DHT22;49792;48.744;9.176;2023-04-24T12:50:16;19.80;73.70
63648;DHT22;49792;48.744;9.176;2023-04-24T12:52:42;19.70;73.70
63648;DHT22;49792;48.744;9.176;2023-04-24T12:55:14;19.70;73.60
63648;DHT22;49792;48.744;9.176;2023-04-24T12:57:40;19.70;73.40
63648;DHT22;49792;48.744;9.176;2023-04-24T13:00:06;19.70;73.50
63648;DHT22;49792;48.744;9.176;2023-04-24T13:02:32;19.70;73.70
63648;DHT22;49792;48.744;9.176;2023-04-24T13:05:00;19.70;73.30
63648;DHT22;49792;48.744;9.176;2023-04-24T13:07:26;19.90;72.60
63648;DHT22;49792;48.744;9.176;2023-04-24T13:09:52;19.70;66.20
63648;DHT22;49792;48.744;9.176;2023-04-24T13:12:18;19.80;64.80
63648;DHT22;49792;48.744;9.176;2023-04-24T13:14:45;19.90;67.70
63648;DHT22;49792;48.744;9.176;2023-04-24T13:17:10;19.80;67.20
63648;DHT22;49792;48.744;9.176;2023-04-24T13:19:37;19.70;67.30
63648;DHT22;49792;48.744;9.176;2023-04-24T13:22:03;19.70;68.30
63648;DHT22;49792;48.744;9.176;2023-04-24T13:24:29;19.60;68.70
63648;DHT22;49792;48.744;9.176;2023-04-24T13:26:54;19.60;69.20
63648;DHT22;49792;48.744;9.176;2023-04-24T13:29:22;19.60;69.40
63648;DHT22;49792;48.744;9.176;2023-04-24T13:31:49;19.60;69.20
63648;DHT22;49792;48.744;9.176;2023-04-24T13:34:15;19.60;69.10
63648;DHT22;49792;48.744;9.176;2023-04-24T13:36:40;19.60;69.60
63648;DHT22;49792;48.744;9.176;2023-04-24T13:39:06;19.60;69.30
63648;DHT22;49792;48.744;9.176;2023-04-24T13:41:32;19.60;69.40
63648;DHT22;49792;48.744;9.176;2023-04-24T13:43:57;19.60;69.50
63648;DHT22;49792;48.744;9.176;2023-04-24T13:46:23;19.50;69.60
63648;DHT22;49792;48.744;9.176;2023-04-24T13:48:49;19.50;69.70
63648;DHT22;49792;48.744;9.176;2023-04-24T13:51:14;19.50;69.50
63648;DHT22;49792;48.744;9.176;2023-04-24T13:53:40;19.50;69.60
63648;DHT22;49792;48.744;9.176;2023-04-24T13:56:06;19.50;69.60
63648;DHT22;49792;48.744;9.176;2023-04-24T13:58:31;19.50;69.40
63648;DHT22;49792;48.744;9.176;2023-04-24T14:00:57;19.50;69.30
63648;DHT22;49792;48.744;9.176;2023-04-24T14:03:23;19.50;69.60
63648;DHT22;49792;48.744;9.176;2023-04-24T14:05:48;19.50;69.50
63648;DHT22;49792;48.744;9.176;2023-04-24T14:08:14;19.50;69.40
63648;DHT22;49792;48.744;9.176;2023-04-24T14:10:43;19.70;69.20
63648;DHT22;49792;48.744;9.176;2023-04-24T14:13:08;19.70;69.00
63648;DHT22;49792;48.744;9.176;2023-04-24T14:15:35;19.70;69.40
63648;DHT22;49792;48.744;9.176;2023-04-24T14:18:03;19.70;69.40
63648;DHT22;49792;48.744;9.176;2023-04-24T14:20:31;19.70;69.30
63648;DHT22;49792;48.744;9.176;2023-04-24T14:22:57;19.70;69.50
63648;DHT22;49792;48.744;9.176;2023-04-24T14:25:26;19.70;69.90
63648;DHT22;49792;48.744;9.176;2023-04-24T14:27:51;19.70;69.90
63648;DHT22;49792;48.744;9.176;2023-04-24T14:30:17;19.70;69.70
63648;DHT22;49792;48.744;9.176;2023-04-24T14:32:43;19.60;69.80
63648;DHT22;49792;48.744;9.176;2023-04-24T14:35:09;19.70;69.30
63648;DHT22;49792;48.744;9.176;2023-04-24T14:37:34;19.80;70.00
63648;DHT22;49792;48.744;9.176;2023-04-24T14:40:01;19.80;69.90
63648;DHT22;49792;48.744;9.176;2023-04-24T14:42:27;19.80;70.80
63648;DHT22;49792;48.744;9.176;2023-04-24T14:44:55;20.00;70.20
63648;DHT22;49792;48.744;9.176;2023-04-24T14:47:21;19.90;69.60
63648;DHT22;49792;48.744;9.176;2023-04-24T14:49:47;19.90;69.50
63648;DHT22;49792;48.744;9.176;2023-04-24T14:52:13;19.80;69.70
63648;DHT22;49792;48.744;9.176;2023-04-24T14:54:41;19.80;69.80
63648;DHT22;49792;48.744;9.176;2023-04-24T14:57:07;19.80;69.90
63648;DHT22;49792;48.744;9.176;2023-04-24T14:59:32;19.80;70.00
63648;DHT22;49792;48.744;9.176;2023-04-24T15:01:58;19.80;70.10
63648;DHT22;49792;48.744;9.176;2023-04-24T15:04:26;19.80;70.00
63648;DHT22;49792;48.744;9.176;2023-04-24T15:06:52;19.90;70.00
63648;DHT22;49792;48.744;9.176;2023-04-24T15:09:21;19.90;69.70
63648;DHT22;49792;48.744;9.176;2023-04-24T15:11:48;19.90;70.00
63648;DHT22;49792;48.744;9.176;2023-04-24T15:14:14;19.90;69.90
63648;DHT22;49792;48.744;9.176;2023-04-24T15:16:40;20.10;69.10
63648;DHT22;49792;48.744;9.176;2023-04-24T15:19:05;20.20;68.30
63648;DHT22;49792;48.744;9.176;2023-04-24T15:21:31;20.10;67.70
63648;DHT22;49792;48.744;9.176;2023-04-24T15:23:57;20.00;67.20
63648;DHT22;49792;48.744;9.176;2023-04-24T15:26:23;19.90;68.00
63648;DHT22;49792;48.744;9.176;2023-04-24T15:28:49;20.10;68.40
63648;DHT22;49792;48.744;9.176;2023-04-24T15:31:14;20.10;67.40
63648;DHT22;49792;48.744;9.176;2023-04-24T15:33:40;20.10;67.60
63648;DHT22;49792;48.744;9.176;2023-04-24T15:36:05;20.10;67.50
63648;DHT22;49792;48.744;9.176;2023-04-24T15:38:31;20.00;68.50